Search flights

Memphis Intl Airport, Memphis (KMEM)

Airport Weather & NOTAM's

METAR for:KMEM (Memphis Intl, TN, US)
Text:KMEM 160954Z 19003KT 10SM CLR 25/21 A2993 RMK AO2 SLP131 T02500211
Conditions at:0954 UTC 16 Jun 2024
Temperature: 25.0°C ( 77°F)
Dewpoint: 21.1°C ( 70°F) [RH = 79%]
Pressure (altimeter):29.93 inches Hg (1013.6 mb) [Sea level pressure: 1013.1 mb]
Winds:from the S (190 degrees) at 3 MPH (3 knots; 1.5 m/s)
Visibility:10 or more sm (16+ km)
Ceiling:at least 12,000 feet AGL
Clouds:sky clear below 12,000 feet AGL
TAF for:KMEM (Memphis Intl, TN, US) issued at 0852 UTC 16 Jun 2024
Text:KMEM 160852Z 1609/1712 18005KT P6SM SKC
Forecast period:0900 to 1500 UTC 16 June 2024
Forecast type:FROM: standard forecast or significant change
Winds:from the S (180 degrees) at 6 MPH (5 knots; 2.6 m/s)
Visibility:6 or more sm (10+ km)
Ceiling:at least 12,000 feet AGL
Clouds:clear skies
Text:FM161500 19007KT P6SM SCT040
Forecast period:1500 to 1800 UTC 16 June 2024
Forecast type:FROM: standard forecast or significant change
Winds:from the S (190 degrees) at 8 MPH (7 knots; 3.6 m/s)
Visibility:6 or more sm (10+ km)
Ceiling:at least 12,000 feet AGL
Clouds:scattered clouds at 4000 feet AGL
Text:FM161800 19010KT P6SM BKN060
Forecast period:1800 UTC 16 June 2024 to 0100 UTC 17 June 2024
Forecast type:FROM: standard forecast or significant change
Winds:from the S (190 degrees) at 12 MPH (10 knots; 5.1 m/s)
Visibility:6 or more sm (10+ km)
Ceiling:6000 feet AGL
Clouds:broken clouds at 6000 feet AGL
Text:FM170100 15006KT P6SM FEW070 SCT250
Forecast period:0100 to 1200 UTC 17 June 2024
Forecast type:FROM: standard forecast or significant change
Winds:from the SSE (150 degrees) at 7 MPH (6 knots; 3.1 m/s)
Visibility:6 or more sm (10+ km)
Ceiling:at least 12,000 feet AGL
Clouds:few clouds at 7000 feet AGL, scattered clouds at 25000 feet AGL

Live Departures & Arrivals

There are currently no arrivals or departures for this airport.

Departures History (last 12 months)

Flight No. Dest. Aircraft Date
FX075 KIAH FEDEX-MD11... 2024-06-15 00:00:00
FX 103 KMSY FEDEX-MD11... 2024-06-15 00:00:00
FX728 KBHM FEDEX-DC10... 2024-06-14 00:00:00
FX 172 KMIA IF-LIVERY-... 2024-06-14 00:00:00
FX123 KPVD IF-LIVERY-... 2024-06-12 00:00:00
FX 212 EDDK FEDEX-B77F 2024-06-12 00:00:00
FX 161 MMTO FEDEX-DC10... 2024-06-12 00:00:00
FX 151 KTPA IF-LIVERY-... 2024-06-12 00:00:00
FX058 KEWR FEDEX-B77F 2024-06-11 00:00:00
FX 699 WSSS FEDEX-B77F 2024-06-11 00:00:00
FX 164 RJAA FEDEX-B77F 2024-06-11 00:00:00
FX 166 RKSI FEDEX-B77F 2024-06-10 00:00:00
FX 699 WSSS FEDEX-B77F 2024-06-09 00:00:00
FX 151 KTPA FEDEX-MD11... 2024-06-08 00:00:00
FX 151 KTPA GENERIC-B7... 2024-06-08 00:00:00
FX 200 ZSPD FEDEX-B77F 2024-06-07 00:00:00
FX 157 LFPG FEDEX-B77F 2024-06-07 00:00:00
FX 164 RJAA FEDEX-B77F 2024-06-06 00:00:00
FX 032 KBUR FEDEX-DC10... 2024-06-06 00:00:00
FX 194 LIMC FEDEX-MD11... 2024-06-04 00:00:00
FX 166 RKSI FEDEX-B77F 2024-06-05 00:00:00
FX 163 OMDW FEDEX-B77F 2024-06-04 00:00:00
FX 164 RJAA FEDEX-B77F 2024-05-31 00:00:00
CONNECT 159 CYVR FEDEX-DC10... 2024-05-29 00:00:00
FX 018 KABQ GENERIC-B7... 2024-05-29 00:00:00
FX 201 PHNL FEDEX-B77F 2024-05-27 00:00:00
FX 170 CYOW FEDEX-B77F 2024-05-26 00:00:00
FX 1117 KCHA IF-LIVERY-... 2024-05-27 00:00:00
FX699 WSSS FEDEX-B77F 2024-05-25 00:00:00
FX 726 TJSJ FEDEX-MD11... 2024-05-26 00:00:00
FX 711 KJFK FEDEX-MD11... 2024-05-25 00:00:00
FX 209 EDDF FEDEX-MD11... 2024-05-25 00:00:00
FX 197 PANC FEDEX-DC10... 2024-05-24 00:00:00
FX 157 LFPG FEDEX-B77F 2024-05-23 00:00:00
FX 004 KDFW FEDEX-B77F 2024-05-19 00:00:00
FX 157 LFPG FEDEX-B77F 2024-05-18 00:00:00
FX 107 KOMA FEDEX-MD11... 2024-05-18 00:00:00
FX 012 CYWG FEDEX-B77F 2024-05-18 00:00:00
CONNECT78 SBKP FEDEX-B77F 2024-05-18 00:00:00
CONNECT 78 SBKP FEDEX-B77F 2024-05-17 00:00:00
FX 699 WSSS FEDEX-B77F 2024-05-15 00:00:00
FX203 SKBO FEDEX-B77F 2024-05-15 00:00:00
CONNECT 78 SBKP FEDEX-B77F 2024-05-14 00:00:00
CONNECT 78 SBKP FEDEX-B77F 2024-05-13 00:00:00
FX 164 RJAA FEDEX-B77F 2024-05-11 00:00:00
FX058 KEWR FEDEX-MD11... 2024-05-10 00:00:00
FX 176 EBLG FEDEX-B77F 2024-05-10 00:00:00
FX 157 LFPG FEDEX-B77F 2024-05-08 00:00:00
FX699 WSSS FEDEX-B77F 2024-05-07 00:00:00
CONNECT 615 BIKF FEDEX-MD11... 2024-05-05 00:00:00
CONNECT 615 BIKF FEDEX-MD11... 2024-05-05 00:00:00
CONNECT 615 BIKF FEDEX-MD11... 2024-05-05 00:00:00
FX 157 LFPG FEDEX-B77F 2024-05-05 00:00:00
FX 182 EGSS FEDEX-B77F 2024-05-04 00:00:00
FX 172 KMIA FEDEX-B77F 2024-05-04 00:00:00
FX 093 KMDT FEDEX-MD11... 2024-05-03 00:00:00
FX198 YSSY FEDEX-B77F 2024-04-30 00:00:00
FX 163 OMDW FEDEX-B77F 2024-04-27 00:00:00
FX 205 CYYC FEDEX-B77F 2024-04-26 00:00:00
FX 164 RJAA FEDEX-B77F 2024-04-26 00:00:00
FX103 KMSY FEDEX-MD11... 2024-04-26 00:00:00
FX 157 LFPG FEDEX-B77F 2024-04-25 00:00:00
FX 163 OMDW FEDEX-B77F 2024-04-21 00:00:00
FX 157 LFPG FEDEX-B77F 2024-04-20 00:00:00
FX 006 KBOS FEDEX-MD11... 2024-04-20 00:00:00
FX182 EGSS FEDEX-B77F 2024-04-19 00:00:00
FX001 KOAK FEDEX-B77F 2024-04-19 00:00:00
FX 166 RKSI FEDEX-B77F 2024-04-19 00:00:00
FX 087 KLFT FEDEX-MD11... 2024-04-19 00:00:00
MTN 8300 KHSV FEDEX-C208 2024-04-18 00:00:00
FX 699 WSSS FEDEX-B77F 2024-04-18 00:00:00
FX 164 RJAA FEDEX-B77F 2024-04-18 00:00:00
FX 056 KELP FEDEX-B77F 2024-04-18 00:00:00
FX 139 KSEA FEDEX-B77F 2024-04-16 00:00:00
FX 168 SBKP FEDEX-MD11... 2024-04-16 00:00:00
FX 699 WSSS FEDEX-B77F 2024-04-14 00:00:00
FX163 OMDW FEDEX-B77F 2024-05-19 00:00:00
FX163 OMDW FEDEX-B77F 2024-04-12 00:00:00
FX 203 SKBO FEDEX-B77F 2024-04-11 00:00:00
FX201 PHNL FEDEX-B77F 2024-04-10 00:00:00
FX119 KPHX FEDEX-B77F 2024-04-10 00:00:00
FX 196 KAFW FEDEX-B77F 2024-04-10 00:00:00
FX 157 LFPG FEDEX-B77F 2024-04-09 00:00:00
FX212 EDDK FEDEX-B77F 2024-04-08 00:00:00
FX040 KCLT FEDEX-MD11... 2024-04-08 00:00:00
FX 168 SBKP FEDEX-B77F 2024-04-08 00:00:00
FX 164 RJAA FEDEX-B77F 2024-04-09 00:00:00
FX699 WSSS FEDEX-B77F 2024-04-08 00:00:00
FX1287 VOBL FEDEX-B77F 2024-04-07 00:00:00
FX 747 KIAD IF-LIVERY-... 2024-04-07 00:00:00
FX 157 LFPG FEDEX-B77F 2024-04-06 00:00:00
FX 040 KCLT FEDEX-MD11... 2024-04-07 00:00:00
FX 699 WSSS FEDEX-B77F 2024-04-05 00:00:00
FX 034 KBWI FEDEX-MD11... 2024-04-05 00:00:00
CONNECT 34 EGSS FEDEX-B77F 2024-04-05 00:00:00
FX735 KBNA FEDEX-MD11... 2024-04-05 00:00:00
FX 699 WSSS FEDEX-B77F 2024-04-04 00:00:00
FX 182 EGSS FEDEX-B77F 2024-04-04 00:00:00
FX 004 KDFW FEDEX-DC10... 2024-04-04 00:00:00
FX 699 WSSS FEDEX-B77F 2024-04-03 00:00:00
FX 157 LFPG FEDEX-B77F 2024-04-03 00:00:00
CONNECT 34 EGSS FEDEX-B77F 2024-04-03 00:00:00
FX 699 WSSS FEDEX-B77F 2024-04-02 00:00:00
FX 141 KSFO FEDEX-B77F 2024-04-02 00:00:00
FX 139 KSEA FEDEX-B77F 2024-04-03 00:00:00
FX 016 KLAX FEDEX-MD11... 2024-04-02 00:00:00
CONNECT 34 EGSS FEDEX-B77F 2024-04-02 00:00:00
FX 157 LFPG FEDEX-B77F 2024-04-01 00:00:00
CONNECT34 EGSS FEDEX-B77F 2024-04-01 00:00:00
CONNECT 34 EGSS FEDEX-B77F 2024-04-01 00:00:00
FX 117 KPHL FEDEX-MD11... 2024-03-31 00:00:00
FX 022 KAUS FEDEX-B77F 2024-03-31 00:00:00
FX 006 KBOS FEDEX-B77F 2024-03-31 00:00:00
FX 172 KMIA FEDEX-B77F 2024-03-31 00:00:00
FX699 WSSS FEDEX-B77F 2024-03-29 00:00:00
FX085 KLCK IF-LIVERY-... 2024-03-30 00:00:00
FXCTR WSSS FEDEX-B77F 2024-03-28 00:00:00
FX 168 SBKP FEDEX-B77F 2024-03-27 00:00:00
FX 164 RJAA FEDEX-B77F 2024-03-27 00:00:00
FX 001 KOAK FEDEX-MD11... 2024-03-27 00:00:00
FX 172 KMIA FEDEX-B77F 2024-03-26 00:00:00
FX 163 OMDW FEDEX-B77F 2024-03-26 00:00:00
FX046 KCVG FEDEX-B77F 2024-03-25 00:00:00
FX 018 KABQ FEDEX-B77F 2024-03-25 00:00:00
FX 203 SKBO FEDEX-MD11... 2024-03-24 00:00:00
FX203 SKBO FEDEX-B77F 2024-03-24 00:00:00
FX 203 SKBO FEDEX-B77F 2024-03-24 00:00:00
FX199 RCTP FEDEX-B77F 2024-03-22 00:00:00
FX 699 WSSS FEDEX-B77F 2024-03-22 00:00:00
FX 197 PANC FEDEX-MD11... 2024-03-21 00:00:00
FX 699 WSSS FEDEX-B77F 2024-03-20 00:00:00
FX 157 LFPG FEDEX-B77F 2024-03-20 00:00:00
FX699 WSSS FEDEX-B77F 2024-03-20 00:00:00
FX212 EDDK FEDEX-B77F 2024-03-19 00:00:00
FX 699 WSSS FEDEX-B77F 2024-03-19 00:00:00
FX 196 KAFW FEDEX-B77F 2024-03-19 00:00:00
FX 016 KLAX FEDEX-B77F 2024-03-20 00:00:00
CONNECT 4 CYEG FEDEX-B77F 2024-03-19 00:00:00
FX1106 KBTV IF-LIVERY-... 2024-03-18 00:00:00
FX 699 WSSS FEDEX-B77F 2024-03-18 00:00:00
FX712 KRNO IF-LIVERY-... 2024-03-16 00:00:00
FX 050 KDEN FEDEX-DC10... 2024-03-15 00:00:00
CONNECT62 MPTO FEDEX-B77F 2024-03-15 00:00:00
FXCTR KJFK FEDEX-MD11... 2024-03-14 00:00:00
FX 711 KJFK FEDEX-MD11... 2024-03-14 00:00:00
FX 699 WSSS FEDEX-B77F 2024-03-13 00:00:00
CONNECT62 MPTO FEDEX-B77F 2024-03-13 00:00:00
FX 699 WSSS FEDEX-B77F 2024-03-12 00:00:00
FX 699 WSSS FEDEX-B77F 2024-03-11 00:00:00
FX 699 WSSS FEDEX-B77F 2024-03-10 00:00:00
FX 716 KSGF FEDEX-DC10... 2024-03-09 00:00:00
FX 211 RJBB FEDEX-B77F 2024-03-09 00:00:00
FX 1006 KSAN IF-LIVERY-... 2024-03-09 00:00:00
FX 050 KDEN FEDEX-DC10... 2024-03-09 00:00:00
FX 020 KATL FEDEX-B77F 2024-03-08 00:00:00
FX 699 WSSS FEDEX-B77F 2024-03-07 00:00:00
CONNECT 1 EBLG FEDEX-MD11... 2024-03-08 00:00:00
FX 097 KMKE FEDEX-MD11... 2024-03-06 00:00:00
FX 001 KOAK FEDEX-B77F 2024-03-07 00:00:00
FX 001 KOAK FEDEX-B77F 2024-03-07 00:00:00
FX198 YSSY FEDEX-B77F 2024-03-05 00:00:00
FX 699 WSSS FEDEX-B77F 2024-03-06 00:00:00
FX 699 WSSS FEDEX-B77F 2024-03-05 00:00:00
FX203 SKBO FEDEX-MD11... 2024-03-04 00:00:00
FX 699 WSSS FEDEX-B77F 2024-03-05 00:00:00
FX 699 WSSS FEDEX-B77F 2024-03-04 00:00:00
FX 209 EDDF FEDEX-MD11... 2024-03-04 00:00:00
FX 203 SKBO FEDEX-MD11... 2024-03-04 00:00:00
FX 699 WSSS FEDEX-B77F 2024-03-05 00:00:00
FX 211 RJBB FEDEX-B77F 2024-03-03 00:00:00
FX 196 KAFW FEDEX-B77F 2024-03-04 00:00:00
FX 172 KMIA FEDEX-MD11... 2024-03-04 00:00:00
FX 699 WSSS FEDEX-B77F 2024-03-03 00:00:00
FX 151 KTPA FEDEX-B77F 2024-03-03 00:00:00
FX 075 KIAH FEDEX-MD11... 2024-03-02 00:00:00
FX166 RKSI FEDEX-B77F 2024-03-01 00:00:00
FX 699 WSSS FEDEX-B77F 2024-03-02 00:00:00
FX 194 LIMC FEDEX-B77F 2024-03-01 00:00:00
FX 157 LFPG FEDEX-B77F 2024-03-01 00:00:00
FX 115 KPDX FEDEX-B77F 2024-03-02 00:00:00
FX 197 PANC FEDEX-B77F 2024-02-29 00:00:00
FX 196 KAFW FEDEX-DC10... 2024-03-01 00:00:00
FX198 YSSY FEDEX-B77F 2024-02-28 00:00:00
FX 699 WSSS FEDEX-B77F 2024-02-29 00:00:00
FX 699 WSSS FEDEX-B77F 2024-02-29 00:00:00
FX 182 EGSS FEDEX-MD11... 2024-02-27 00:00:00
FX056 KELP FEDEX-B77F 2024-02-26 00:00:00
FX 172 KMIA FEDEX-B77F 2024-02-25 00:00:00
FX 166 RKSI FEDEX-B77F 2024-02-26 00:00:00
FX 198 YSSY FEDEX-B77F 2024-02-25 00:00:00
FX 163 OMDB FEDEX-B77F 2024-02-24 00:00:00
FX 020 KATL FEDEX-B77F 2024-02-24 00:00:00
FX 020 KATL FEDEX-B77F 2024-02-24 00:00:00
FX 165 RJAA FEDEX-B77F 2024-02-24 00:00:00
FX 163 OMDB FEDEX-B77F 2024-02-24 00:00:00
FX747 KJFK FEDEX-MD11... 2024-02-22 00:00:00
FX022 KAUS FEDEX-B77F 2024-02-23 00:00:00
FX 734 WSSS FEDEX-B77F 2024-02-22 00:00:00
FX058 KEWR FEDEX-B77F 2024-02-20 00:00:00
FX 200 RCTP FEDEX-B77F 2024-02-19 00:00:00
FX 199 YSSY FEDEX-B77F 2024-02-20 00:00:00
FX178 KIND FEDEX-B77F 2024-02-18 00:00:00
FX 165 RJAA FEDEX-B77F 2024-02-18 00:00:00
FX 012 CYWG FEDEX-B77F 2024-02-17 00:00:00
CONNECT 1192 BIKF FEDEX-MD11... 2024-02-16 00:00:00
FX 199 YSSY FEDEX-B77F 2024-02-17 00:00:00
FX 199 YSSY FEDEX-B77F 2024-02-16 00:00:00
FX 178 KIND FEDEX-MD11... 2024-02-15 00:00:00
FX 163 OMDB FEDEX-B77F 2024-02-16 00:00:00
FX747 KJFK FEDEX-MD11... 2024-02-14 00:00:00
FX 202 PHNL FEDEX-B77F 2024-02-15 00:00:00
CONNECT 1192 BIKF FEDEX-MD11... 2024-02-15 00:00:00
FX063 KFSD IF-LIVERY-... 2024-02-13 00:00:00
FX 113 KPBI FEDEX-MD11... 2024-02-13 00:00:00
FX 109 KONT FEDEX-B77F 2024-02-14 00:00:00
FX 016 KLAX FEDEX-B77F 2024-02-12 00:00:00
FX 167 RKSI FEDEX-B77F 2024-02-11 00:00:00
FX 157 LFPG FEDEX-B77F 2024-02-11 00:00:00
FX 199 YSSY FEDEX-B77F 2024-02-10 00:00:00
FX 058 KEWR FEDEX-B77F 2024-02-10 00:00:00
FX204 SKBO FEDEX-B77F 2024-02-09 00:00:00
FX 167 RKSI FEDEX-B77F 2024-02-09 00:00:00
FX 197 KAFW FEDEX-B77F 2024-02-09 00:00:00
FX 157 LFPG FEDEX-B77F 2024-02-08 00:00:00
FX056 KELP FEDEX-DC10... 2024-02-06 00:00:00
FX 157 LFPG FEDEX-MD11... 2024-02-05 00:00:00
FX202 PHNL FEDEX-B77F 2024-02-04 00:00:00
FX 198 PANC FEDEX-B77F 2024-02-04 00:00:00
FX 022 KAUS FEDEX-MD11... 2024-02-03 00:00:00
FX 163 OMDB FEDEX-B77F 2024-02-03 00:00:00
FX 163 OMDB FEDEX-B77F 2024-02-02 00:00:00
FX 056 KELP GENERIC-B7... 2024-01-31 00:00:00
FX014 KRDU FEDEX-MD11... 2024-01-29 00:00:00
FX CTR LEMD FEDEX-B77F 2024-01-28 00:00:00
FX CTR LEMD FEDEX-B77F 2024-01-28 00:00:00
FX 204 SKBO FEDEX-B77F 2024-01-27 00:00:00
FX 054 KDTW FEDEX-B77F 2024-01-28 00:00:00
FX 016 KLAX FEDEX-B77F 2024-01-27 00:00:00
FX CTR NZIR FEDEX-B77F 2024-01-27 00:00:00
FX 006 KBOS FEDEX-B77F 2024-01-24 00:00:00
FX151 KTPA IF-LIVERY-... 2024-01-23 00:00:00
FX058 KEWR FEDEX-B77F 2024-01-21 00:00:00
FX 167 RKSI FEDEX-B77F 2024-01-20 00:00:00
FX 004 KDFW FEDEX-MD11... 2024-01-20 00:00:00
FX 198 PANC GENERIC-B7... 2024-01-19 00:00:00
FX 016 KLAX FEDEX-B77F 2024-01-20 00:00:00
FX069 KGSO IF-LIVERY-... 2024-01-19 00:00:00
FX 764 KBHM FEDEX-MD11... 2024-01-18 00:00:00
FX199 YSSY FEDEX-B77F 2024-01-15 00:00:00
MTN 8304 KTUL FEDEX-C208 2024-01-16 00:00:00
FX CTR HKJK FEDEX-B77F 2024-01-15 00:00:00
FX 020 KATL FEDEX-B77F 2024-01-15 00:00:00
FX 198 PANC FEDEX-MD11... 2024-01-14 00:00:00
FX 167 RKSI FEDEX-B77F 2024-01-14 00:00:00
FX 016 KLAX IF-LIVERY-... 2024-01-15 00:00:00
FX204 SKBO FEDEX-B77F 2024-01-13 00:00:00
FX 199 YSSY FEDEX-B77F 2024-01-14 00:00:00
FX 016 KLAX FEDEX-B77F 2024-01-13 00:00:00
FX 163 OMDB FEDEX-B77F 2024-01-13 00:00:00
FX 199 YSSY B77F 2024-01-11 00:00:00
FX167 RKSI B77F 2024-01-10 00:00:00
FX 167 RKSI B77F 2024-01-10 00:00:00
FX 167 RKSI B77F 2024-01-10 00:00:00
FX 167 RKSI B77F 2024-01-10 00:00:00
FX 139 KSEA B77F 2024-01-10 00:00:00
FX202 PHNL B77F 2024-01-09 00:00:00
FX WINTER 15 CYYZ B77F 2024-01-08 00:00:00
FX058 KEWR MD11F 2024-01-07 00:00:00
FX 199 YSSY B77F 2024-01-09 00:00:00
FX 157 LFPG B77F 2024-01-07 00:00:00
FX 022 KAUS MD11F 2024-01-07 00:00:00
MTN8574 KLBB C208 2024-01-06 00:00:00
FX199 YSSY B77F 2024-01-06 00:00:00
FX 202 PHNL B77F 2024-01-06 00:00:00
FX 157 LFPG B77F 2024-01-07 00:00:00
FX WINTER 15 CYYZ B77F 2024-01-05 00:00:00
FX 1287 VOBL FEDEX-B77F 2024-03-05 00:00:00
FX 050 KDEN DC10F 2024-01-05 00:00:00
FX 022 KAUS B752 2024-01-05 00:00:00
FX 012 CYWG B77F 2024-01-05 00:00:00
FX196 CYYZ MD11F 2024-01-04 00:00:00
FX 163 OMDB B77F 2024-01-04 00:00:00
FX 163 OMDB B77F 2024-01-04 00:00:00
FX 163 OMDB B77F 2024-01-03 00:00:00
FX 042 KCOS B752 2024-01-03 00:00:00
FX 202 PHNL B77F 2024-01-03 00:00:00
FX 173 KMIA B77F 2023-12-31 00:00:00
FX WINTER 15 CYYZ B77F 2023-12-31 00:00:00
FX 163 OMDB B77F 2023-12-30 00:00:00
FX 163 OMDB B77F 2023-12-29 00:00:00
FX173 KMIA MD11F 2023-12-28 00:00:00
FX747 KJFK MD11F 2023-12-27 00:00:00
FX 165 RJAA B77F 2023-12-27 00:00:00
FX 157 LFPG B77F 2023-12-27 00:00:00
FX 042 KCOS MD11F 2023-12-26 00:00:00
FX093 KMDT B77F 2023-12-26 00:00:00
FX089 KMCI B77F 2023-12-25 00:00:00
FX016 KLAX B77F 2023-12-25 00:00:00
FX 163 OMDB B77F 2023-12-24 00:00:00
FX WINTER 15 CYYZ B77F 2023-12-24 00:00:00
FX066 KGRR B77F 2023-12-23 00:00:00
FX WINTER 15 CYYZ B77F 2023-12-21 00:00:00
FX WINTER 15 CYYZ B77F 2023-12-21 00:00:00
FX 054 KDTW MD11F 2023-12-21 00:00:00
FX 004 KDFW MD11F 2023-12-21 00:00:00
FXWINTER1 CYYZ B77F 2023-12-20 00:00:00
FX WINTER 15 CYYZ B77F 2023-12-20 00:00:00
FX WINTER 15 CYYZ B77F 2023-12-20 00:00:00
FX 210 EDDF MD11F 2023-12-20 00:00:00
FX206 CYYC B77F 2023-12-19 00:00:00
FX WINTER 15 CYYZ B77F 2023-12-21 00:00:00
FX173 KMIA B77F 2023-12-18 00:00:00
FX WINTER 15 CYYZ B77F 2023-12-18 00:00:00
FX197 KAFW B77F 2023-12-17 00:00:00
FX WINTER 15 CYYZ B77F 2023-12-18 00:00:00
FX 169 SBKP MD11F 2023-12-17 00:00:00
FX 157 LFPG B77F 2023-12-17 00:00:00
FX 016 KLAX B77F 2023-12-17 00:00:00
FX 020 KATL DC10F 2023-12-16 00:00:00
FX177 EBLG B77F 2023-12-16 00:00:00
FX 151 KTPA MD11F 2023-12-15 00:00:00
FX 183 EGSS MD11F 2023-12-14 00:00:00
FX081 KLAS MD11F 2023-12-13 00:00:00
FX 199 YSSY MD11F 2023-12-13 00:00:00
FX WINTER 15 CYYZ B77F 2023-12-12 00:00:00
FX WINTER 15 CYYZ B77F 2023-12-12 00:00:00
FX 199 YSSY B77F 2023-12-12 00:00:00
FX 204 SKBO B77F 2023-12-10 00:00:00
FX 153 KTUS B77F 2023-12-11 00:00:00
FX747 KJFK MD11F 2023-12-08 00:00:00
FX165 RJAA B77F 2023-12-08 00:00:00
FXWINTER1 CYYZ B77F 2023-12-07 00:00:00
FX 165 RJAA B77F 2023-12-08 00:00:00
FX016 KLAX B77F 2023-12-06 00:00:00
FX WINTER 15 CYYZ B77F 2023-12-05 00:00:00
FX WINTER 15 CYYZ B77F 2023-12-03 00:00:00
FX 163 OMDB B77F 2023-12-02 00:00:00
FX 157 LFPG MD11F 2023-12-02 00:00:00
FX CTR VABB B77F 2023-11-27 00:00:00
FX 202 PHNL B77F 2023-11-27 00:00:00
FX 157 LFPG B77F 2023-11-27 00:00:00
FX 109 KONT MD11F 2023-11-26 00:00:00
FX 058 KEWR B77F 2023-11-27 00:00:00
FX 167 RKSI B77F 2023-11-25 00:00:00
FX 105 KOKC B752 2023-11-25 00:00:00
FX 050 KDEN B77F 2023-11-25 00:00:00
FX 178 KIND B77F 2023-11-23 00:00:00
FX 157 LFPG B77F 2023-11-22 00:00:00
FX 153 KTUS B77F 2023-11-21 00:00:00
FX213 EDDK B77F 2023-11-20 00:00:00
FX 734 WSSS B77F 2023-11-19 00:00:00
FX 165 RJAA B77F 2023-11-19 00:00:00
FX 139 KSEA MD11F 2023-11-20 00:00:00
FX 198 PANC B77F 2023-11-19 00:00:00
FX 163 OMDB B77F 2023-11-18 00:00:00
FX 020 KATL MD11F 2023-11-19 00:00:00
FX ROTW PANC MD11F 2023-11-17 00:00:00
FX 195 LIMC MD11F 2023-11-15 00:00:00
FX 059 KFAR B752 2023-11-15 00:00:00
FX 163 OMDB B77F 2023-11-14 00:00:00
FXEVENT WSSS B77F 2023-11-13 00:00:00
FX 197 KAFW B77F 2023-11-13 00:00:00
FX 734 WSSS B77F 2023-11-13 00:00:00
FX 201 ZSPD B77F 2023-11-12 00:00:00
FX 210 EDDF B77F 2023-11-12 00:00:00
FX210 EDDF MD11F 2023-11-10 00:00:00
FX 197 KAFW B77F 2023-11-10 00:00:00
FX 183 EGSS B77F 2023-11-11 00:00:00
FX 020 KATL MD11F 2023-11-10 00:00:00
FX 171 CYOW DC10F 2023-11-09 00:00:00
FX 016 KLAX MD11F 2023-11-08 00:00:00
FX734 WSSS B77F 2023-11-05 00:00:00
FX198 PANC B77F 2023-11-05 00:00:00
FX085 KLCK B77F 2023-11-04 00:00:00
FX CHALLENGE #1 KMCO B77F 2023-11-05 00:00:00
FX 157 LFPG B77F 2023-11-05 00:00:00
FX EVENT KAFW B77F 2023-11-04 00:00:00
FX EVENT KAFW MD11F 2023-11-04 00:00:00
FX EVENT KAFW B77F 2023-11-04 00:00:00
FX EVENT KAFW B77F 2023-11-04 00:00:00
FX EVENT KAFW B77F 2023-11-04 00:00:00
FX EVENT KAFW MD11F 2023-11-04 00:00:00
FX EVENT KAFW B77F 2023-11-04 00:00:00
FX EVENT KAFW B77F 2023-11-04 00:00:00
FX EVENT KAFW B77F 2023-11-04 00:00:00
FX 734 WSSS B77F 2023-11-05 00:00:00
FX157 LFPG MD11F 2023-11-02 00:00:00
FX 202 PHNL B77F 2023-11-01 00:00:00
FX 198 PANC B77F 2023-10-31 00:00:00
FX 169 SBKP B77F 2023-10-31 00:00:00
FX 004 KDFW B77F 2023-10-31 00:00:00
FXCHALLEN KTPA B77F 2023-10-30 00:00:00
FXCHALLEN KTPA B77F 2023-10-30 00:00:00
FX CHALLENGE (1) KTPA B77F 2023-10-30 00:00:00
FX CHALLENGE (1) KTPA B77F 2023-10-30 00:00:00
FX CHALLENGE (1) KTPA B77F 2023-10-30 00:00:00
FX 167 RKSI B77F 2023-10-30 00:00:00
FX 061 KFLL MD11F 2023-10-29 00:00:00
FX169 SBKP B77F 2023-10-28 00:00:00
FX167 RKSI B77F 2023-10-26 00:00:00
FX 210 EDDF B77F 2023-10-26 00:00:00
FX 169 SBKP B77F 2023-10-26 00:00:00
FX829 BIKF MD11F 2023-10-26 00:00:00
FX 103 KMSY DC10F 2023-10-25 00:00:00
FX 213 EDDK B77F 2023-10-24 00:00:00
FX157 LFPG MD11F 2023-10-23 00:00:00
FX 004 KDFW B77F 2023-10-24 00:00:00
FX213 EDDK B77F 2023-10-22 00:00:00
5Y43 PANC ATLAS B748 2023-10-22 00:00:00
FX ROTW TJSJ CARGOLUX B... 2023-10-21 00:00:00
FX 163 OMDB B77F 2023-10-21 00:00:00
FX198 PANC B77F 2023-10-20 00:00:00
FX 012 CYWG B77F 2023-10-20 00:00:00
FX829 BIKF MD11F 2023-10-19 00:00:00
FX 163 OMDB B77F 2023-10-18 00:00:00
FX 153 KTUS B77F 2023-10-18 00:00:00
5Y40 RKSI ATLAS B748 2023-10-18 00:00:00
FX213 EDDK B77F 2023-10-16 00:00:00
FX771 KBNA B752 2023-10-15 00:00:00
FX CTR FACT B77F 2023-10-15 00:00:00
FX 167 RKSI B77F 2023-10-15 00:00:00
FX829 BIKF MD11F 2023-10-14 00:00:00
FX173 KMIA B752 2023-10-14 00:00:00
FX058 KEWR B77F 2023-10-14 00:00:00
FX 121 KPIT MD11F 2023-10-14 00:00:00
FX 163 OMDB B77F 2023-10-13 00:00:00
5Y40 RKSI ATLAS B748 2023-10-11 00:00:00
FX 196 CYYZ B77F 2023-10-10 00:00:00
FX 157 LFPG B77F 2023-10-10 00:00:00
FX 105 KOKC B77F 2023-10-09 00:00:00
FX 734 WSSS B77F 2023-10-08 00:00:00
FX EVENT KIND B77F 2023-10-09 00:00:00
FX EVENT KIND B77F 2023-10-07 00:00:00
FX EVENT KIND B77F 2023-10-07 00:00:00
FX EVENT KIND B77F 2023-10-07 00:00:00
FX EVENT KIND B77F 2023-10-07 00:00:00
FX EVENT KIND B77F 2023-10-07 00:00:00
FX EVENT KIND B77F 2023-10-07 00:00:00
FX EVENT KIND B77F 2023-10-07 00:00:00
FX EVENT KIND B77F 2023-10-07 00:00:00
FX EVENT KIND B77F 2023-10-07 00:00:00
FX 020 KATL MD11F 2023-10-07 00:00:00
FX ROTW PANC MD11F 2023-10-07 00:00:00
FX CTR KSTL B752 2023-10-06 00:00:00
FX 829 BIKF MD11F 2023-10-06 00:00:00
FX 163 OMDB B77F 2023-10-05 00:00:00
FX 113 KPBI MD11F 2023-10-06 00:00:00
FX750 KROA MD11F 2023-10-05 00:00:00
FX020 KATL MD11F 2023-10-04 00:00:00
FX 202 PHNL B77F 2023-10-04 00:00:00
FX 163 OMDB B77F 2023-10-03 00:00:00
FX199 YSSY B77F 2023-10-01 00:00:00
FX 020 KATL MD11F 2023-10-01 00:00:00
FX 734 WSSS B77F 2023-09-29 00:00:00
FX 202 PHNL MD11F 2023-10-01 00:00:00
FX 198 PANC MD11F 2023-10-01 00:00:00
FX 153 KTUS B77F 2023-10-01 00:00:00
FX 061 KFLL MD11F 2023-09-29 00:00:00
FX 058 KEWR B77F 2023-09-29 00:00:00
FX173 KMIA B77F 2023-09-28 00:00:00
FX CTR HECA TNT B77F 2023-09-28 00:00:00
MTN8300 KHSV C208 2023-09-27 00:00:00
FX 163 OMDB B77F 2023-09-28 00:00:00
FX195 LIMC B77F 2023-09-26 00:00:00
FX069 KGSO B77F 2023-09-25 00:00:00
FX058 KEWR B77F 2023-09-25 00:00:00
FX 020 KATL B77F 2023-09-25 00:00:00
FX163 OMDB B77F 2023-09-24 00:00:00
FX 020 KATL B77F 2023-09-24 00:00:00
FX 734 WSSS B77F 2023-09-23 00:00:00
FX 016 KLAX MD11F 2023-09-22 00:00:00
FX 213 EDDK B77F 2023-09-22 00:00:00
FX 212 RJBB B77F 2023-09-23 00:00:00
FX 173 KMIA B77F 2023-09-21 00:00:00
FX 020 KATL B77F 2023-09-21 00:00:00
FX CTR UUEE B77F 2023-09-18 00:00:00
FX 169 SBKP MD11F 2023-09-17 00:00:00
FX 762 TJSJ MD11F 2023-09-16 00:00:00
FX 165 RJAA B77F 2023-09-17 00:00:00
FX 107 KOMA MD11F 2023-09-16 00:00:00
FX 201 ZSPD B77F 2023-09-15 00:00:00
FX 050 KDEN DC10F 2023-09-15 00:00:00
FX CTR OERK B77F 2023-09-14 00:00:00
FX 734 WSSS B77F 2023-09-14 00:00:00
FX 022 KAUS B77F 2023-09-13 00:00:00
FX CTR ESSA B77F 2023-09-13 00:00:00
FX 006 KBOS TNT B77F 2023-09-12 00:00:00
FX 058 KEWR MD11F 2023-09-11 00:00:00
FX 756 KSLC MD11F 2023-09-11 00:00:00
FX 199 YSSY B77F 2023-09-10 00:00:00
FX 016 KLAX MD11F 2023-09-10 00:00:00
FX183 EGSS B77F 2023-09-08 00:00:00
FX 199 YSSY B77F 2023-09-08 00:00:00
FX 199 YSSY B77F 2023-09-07 00:00:00
FX 196 CYYZ B77F 2023-09-06 00:00:00
FX050 KDEN MD11F 2023-09-05 00:00:00
FX 153 KTUS B77F 2023-09-05 00:00:00
FX 050 KDEN MD11F 2023-09-05 00:00:00
FX163 OMDB B77F 2023-09-04 00:00:00
FX 012 CYWG B77F 2023-09-05 00:00:00
5Y50 TJSJ ATLAS B744 2023-09-04 00:00:00
FX CTR WSSS B77F 2023-09-04 00:00:00
FX CTR WSSS B77F 2023-09-03 00:00:00
FX 734 WSSS B77F 2023-09-03 00:00:00
FX 734 WSSS B77F 2023-09-03 00:00:00
FX 734 WSSS B77F 2023-09-03 00:00:00
FX 163 OMDB B77F 2023-09-02 00:00:00
FX 151 KTPA B77F 2023-09-02 00:00:00
FXCTR EDDF DC10F 2023-09-01 00:00:00
FX734 WSSS B77F 2023-09-02 00:00:00
FX 734 WSSS B77F 2023-09-02 00:00:00
FX 213 EDDK B77F 2023-09-01 00:00:00
FX 213 EDDK B77F 2023-09-01 00:00:00
FX 020 KATL MD11F 2023-09-01 00:00:00
FX210 EDDF MD11F 2023-08-30 00:00:00
5Y40 RKSI ATLAS B744 2023-08-30 00:00:00
FX202 PHNL B77F 2023-08-29 00:00:00
FX 001 KOAK B77F 2023-08-29 00:00:00
FX 210 EDDF B77F 2023-08-28 00:00:00
FX 020 KATL B77F 2023-08-27 00:00:00
FX 020 KATL MD11F 2023-08-27 00:00:00
FX 163 OMDB B77F 2023-08-26 00:00:00
FX 157 LFPG B77F 2023-08-26 00:00:00
FX178 KIND B77F 2023-08-24 00:00:00
FX 173 KMIA B77F 2023-08-24 00:00:00
FX 075 KIAH MD11F 2023-08-25 00:00:00
FX016 KLAX B77F 2023-08-23 00:00:00
FX 157 LFPG B77F 2023-08-23 00:00:00
FX 213 EDDK B77F 2023-08-22 00:00:00
FX 195 LIMC B77F 2023-08-22 00:00:00
FX 157 LFPG B77F 2023-08-23 00:00:00
FX764 KBHM MD11F 2023-08-20 00:00:00
FX 163 OMDB B77F 2023-08-17 00:00:00
FX 157 LFPG B77F 2023-08-15 00:00:00
FX 020 KATL MD11F 2023-08-16 00:00:00
FX 213 EDDK B77F 2023-08-13 00:00:00
FX 119 KPHX MD11F 2023-08-13 00:00:00
FX 163 OMDB B77F 2023-08-12 00:00:00
FX 010 CYMX B77F 2023-08-13 00:00:00
FX WORLD 1 KATL B738 2023-08-11 00:00:00
FX ROTW KAUS B752 2023-08-11 00:00:00
FX 202 PHNL MD11F 2023-08-11 00:00:00
FX 163 OMDB B77F 2023-08-11 00:00:00
FX WORLD 1 KATL B738 2023-08-09 00:00:00
FX 734 WSSS B77F 2023-08-09 00:00:00
FX CTR DNMM B77F 2023-08-09 00:00:00
FX 167 RKSI B77F 2023-08-08 00:00:00
FX 141 KSFO B77F 2023-08-09 00:00:00
FXROTW KAUS B752 2023-08-06 00:00:00
FX022 KAUS B752 2023-08-06 00:00:00
FX ROTW KAUS B752 2023-08-07 00:00:00
FX760 TJBQ B763 2023-08-04 00:00:00
FX 058 KEWR B77F 2023-08-05 00:00:00
FX 165 RJAA B77F 2023-08-03 00:00:00
FX 139 KSEA B77F 2023-08-03 00:00:00
FX 020 KATL B77F 2023-08-04 00:00:00
FX 201 ZSPD B77F 2023-08-02 00:00:00
FX 020 KATL MD11F 2023-08-02 00:00:00
FX 201 ZSPD B77F 2023-07-30 00:00:00
FX 141 KSFO MD11F 2023-07-31 00:00:00
FX 034 KBWI B752 2023-07-30 00:00:00
FX WORLD 1 KATL B738 2023-07-28 00:00:00
FX CTR EGLL B77F 2023-07-26 00:00:00
FX 1024 MMMX B763 2023-07-27 00:00:00
FX 022 KAUS B77F 2023-07-25 00:00:00
FX ROTW EDDK B77F 2023-07-24 00:00:00
FX 829 BIKF MD11F 2023-07-25 00:00:00
FX ROTW EDDK B77F 2023-07-23 00:00:00
FX 159 MMGL B77F 2023-07-23 00:00:00
FX 163 OMDB B77F 2023-07-22 00:00:00
FX 163 OMDB B77F 2023-07-20 00:00:00
FX 048 KDAY B752 2023-07-20 00:00:00
FX 020 KATL B77F 2023-07-20 00:00:00
FX 829 BIKF MD11F 2023-07-20 00:00:00
FX 173 KMIA B77F 2023-07-19 00:00:00
FX 153 KTUS B77F 2023-07-20 00:00:00
FX 169 SBKP B77F 2023-07-18 00:00:00
MTN 8300 KHSV C208 2023-07-16 00:00:00
FX 153 KTUS MD11F 2023-07-16 00:00:00
FX 020 KATL B77F 2023-07-16 00:00:00
FX829 BIKF MD11F 2023-07-15 00:00:00
FX 204 SKBO DC10F 2023-07-15 00:00:00
FX WORLD 1 KATL B738 2023-07-13 00:00:00
FX 169 SBKP B77F 2023-07-13 00:00:00
FX204 SKBO B77F 2023-07-12 00:00:00
FX WORLD 1 KATL B738 2023-07-12 00:00:00
FX 734 WSSS B77F 2023-07-14 00:00:00
FX 198 PANC MD11F 2023-07-13 00:00:00
FX 020 KATL MD11F 2023-07-13 00:00:00
MTN 8332 KCHA C208 2023-07-09 00:00:00
FX 202 PHNL MD11F 2023-07-09 00:00:00
FX734 WSSS B77F 2023-07-07 00:00:00
FX 139 KSEA MD11F 2023-07-08 00:00:00
FX 105 KOKC B752 2023-07-09 00:00:00
FX 163 OMDB B77F 2023-07-07 00:00:00
MTN 8324 KCRW C208 2023-07-07 00:00:00
FX001 KOAK MD11F 2023-07-06 00:00:00
FX WORLD 1 KATL B738 2023-07-07 00:00:00
FX 169 SBKP MD11F 2023-07-06 00:00:00
FX004 KDFW B77F 2023-07-05 00:00:00
FX 020 KATL MD11F 2023-07-06 00:00:00
FX 020 KATL MD11F 2023-07-04 00:00:00
FX198 PANC B77F 2023-07-02 00:00:00
FX WORLD 1 KATL B738 2023-07-02 00:00:00
FX 198 PANC B77F 2023-07-02 00:00:00
MTN8300 KHSV FEDEX C208 2023-01-07 00:00:00
FX 747 KJFK MD11F 2023-07-02 00:00:00
FX 167 RKSI B77F 2023-06-30 00:00:00
FX 105 KOKC MD11F 2023-06-30 00:00:00
FX WORLD 1 KATL B738 2023-06-29 00:00:00
FX 206 CYYC B77F 2023-06-30 00:00:00
FX 058 KEWR B77F 2023-06-29 00:00:00
FX201 ZSPD MD11F 2023-06-27 00:00:00
FX CTR FMCZ B77F 2023-06-27 00:00:00
FX 201 ZSPD MD11F 2023-06-27 00:00:00
FX 157 LFPG B77F 2023-06-27 00:00:00
FXWORLD1 KATL B738 2023-06-26 00:00:00
FX WORLD 1 KATL B738 2023-06-25 00:00:00
FX WORLD 1 KATL B738 2023-06-25 00:00:00
FX 169 SBKP MD11F 2023-06-25 00:00:00
FX 016 KLAX B77F 2023-06-25 00:00:00
FX 016 KLAX MD11F 2023-06-25 00:00:00
FXWORLD1 KATL B738 2023-06-25 00:00:00
FX022 KAUS B77F 2023-06-25 00:00:00
FX WORLD 1 KATL B738 2023-06-25 00:00:00
FX EVENT KATL MD11F 2023-06-24 00:00:00
FX EVENT KATL MD11F 2023-06-24 00:00:00
FX EVENT KATL MD11F 2023-06-24 00:00:00
FX EVENT KATL MD11F 2023-06-24 00:00:00
FX ATC KMEM IFATC 2023-06-24 00:00:00
FX 022 KAUS MD11F 2023-06-25 00:00:00
FXWORLD1 KATL B738 2023-06-22 00:00:00
FX173 KMIA MD11F 2023-06-22 00:00:00
5Y50 TJSJ ATLAS B744 2023-06-22 00:00:00
FX WORLD 1 KATL B738 2023-06-22 00:00:00
FX WORLD 1 KATL B738 2023-06-21 00:00:00
FX WORLD 1 KATL B738 2023-06-20 00:00:00
FX 734 WSSS B77F 2023-06-21 00:00:00
FX016 KLAX B77F 2023-06-18 00:00:00
FX WORLD 1 KATL B738 2023-06-20 00:00:00
FX 734 WSSS B77F 2023-06-19 00:00:00
FX 020 KATL B77F 2023-06-19 00:00:00
FX WORLD 1 KATL B738 2023-06-18 00:00:00
FX WORLD 1 KATL B738 2023-06-18 00:00:00
FX 157 LFPG MD11F 2023-06-18 00:00:00
5Y40 RKSI ATLAS B744 2023-06-18 00:00:00
FXWORLD1 KATL B738 2023-06-17 00:00:00
FX WORLD 1 KATL B738 2023-06-17 00:00:00
FX WORLD 1 KATL B738 2023-06-17 00:00:00
FX WORLD 1 KATL B738 2023-06-17 00:00:00
FX WORLD 1 KATL B752 2023-06-17 00:00:00
FX WORLD 1 KATL B738 2023-06-17 00:00:00
FX WORLD 1 KATL B738 2023-06-17 00:00:00
FX WORLD 1 KATL B738 2023-06-17 00:00:00
FX WORLD 1 KATL B738 2023-06-17 00:00:00
FX WORLD 1 KATL B738 2023-06-17 00:00:00
FX WORLD 1 KATL B738 2023-06-17 00:00:00
FX WORLD 1 KATL B738 2023-06-17 00:00:00
FX WORLD 1 KATL B738 2023-06-17 00:00:00
FX WORLD 1 KATL B738 2023-06-17 00:00:00
FX WORLD 1 KATL B738 2023-06-17 00:00:00
FX CTR HSSK B77F 2023-06-17 00:00:00
FX 163 OMDB B77F 2023-06-17 00:00:00
FX 139 KSEA B77F 2023-06-17 00:00:00

Arrivals History (last 12 months)

Flight No. Origin Aircraft Date
FX 021 KATL DC10F 2023-12-17 00:00:00
FX996 KORD IF-LIVERY-... 2024-06-15 00:00:00
FX729 KBHM FEDEX-MD11... 2024-06-14 00:00:00
FX 124 KPVD FEDEX-MD11... 2024-06-14 00:00:00
FX124 KPVD FEDEX-MD11... 2024-06-13 00:00:00
FX 498 KEWR FEDEX-DC10... 2024-06-12 00:00:00
FX005 KDFW FEDEX-B77F 2024-06-10 00:00:00
FX 208 MPTO FEDEX-B77F 2024-06-09 00:00:00
FX158 LFPG FEDEX-B77F 2024-06-08 00:00:00
FX 642 ZSPD FEDEX-B77F 2024-06-08 00:00:00
FX 152 KTPA IF-LIVERY-... 2024-06-08 00:00:00
FX 587 YSSY FEDEX-B77F 2024-06-07 00:00:00
FX 562 PANC FEDEX-MD11... 2024-06-06 00:00:00
FX 319 RJBB FEDEX-B77F 2024-06-07 00:00:00
FX 165 RJAA FEDEX-B77F 2024-06-06 00:00:00
FX 033 KBUR FEDEX-DC10... 2024-06-06 00:00:00
FXCTR NZAA FEDEX-B77F 2024-06-05 00:00:00
FX 713 KRNO IF-LIVERY-... 2024-06-04 00:00:00
FX 360 KIND FEDEX-MD11... 2024-06-04 00:00:00
FX 173 KMIA FEDEX-MD11... 2024-06-03 00:00:00
FX 134 KSAT FEDEX-MD11... 2024-06-02 00:00:00
FX 727 TJSJ FEDEX-MD11... 2024-05-30 00:00:00
FX 062 KFLL FEDEX-B77F 2024-05-30 00:00:00
FX 734 KJFK GENERIC-B7... 2024-05-29 00:00:00
FX 090 KMCI FEDEX-MD11... 2024-05-25 00:00:00
FX 173 KMIA FEDEX-B77F 2024-05-23 00:00:00
FX 562 PANC FEDEX-B77F 2024-05-22 00:00:00
FX 183 EGSS FEDEX-DC10... 2024-05-18 00:00:00
FX 108 KOMA FEDEX-DC10... 2024-05-18 00:00:00
FX 1288 VOBL FEDEX-B77F 2024-05-17 00:00:00
FX 183 EGSS FEDEX-B77F 2024-05-16 00:00:00
FX179 KCHS FEDEX-MD11... 2024-05-12 00:00:00
FX642 ZSPD FEDEX-B77F 2024-05-10 00:00:00
FX 173 KMIA FEDEX-B77F 2024-05-11 00:00:00
FX 1274 LIMC FEDEX-B77F 2024-05-09 00:00:00
FX 088 KLFT FEDEX-MD11... 2024-05-09 00:00:00
FX 686 EBLG FEDEX-B77F 2024-05-07 00:00:00
FX 587 YSSY FEDEX-B77F 2024-05-08 00:00:00
FX202 PHNL FEDEX-B77F 2024-05-06 00:00:00
FX 076 KIAH FEDEX-B77F 2024-05-06 00:00:00
FXCTR WSSS FEDEX-B77F 2024-05-04 00:00:00
FX 587 YSSY FEDEX-B77F 2024-05-04 00:00:00
FX 138 KSDF FEDEX-MD11... 2024-05-03 00:00:00
FX 041 KCLT FEDEX-MD11... 2024-05-02 00:00:00
FX916 VHHH FEDEX-B77F 2024-05-01 00:00:00
FX734 KJFK IF-LIVERY-... 2024-04-30 00:00:00
FX 916 VHHH FEDEX-B77F 2024-04-29 00:00:00
FX 210 EDDF FEDEX-B77F 2024-04-28 00:00:00
FX 167 RKSI FEDEX-B77F 2024-04-28 00:00:00
FX 734 KJFK FEDEX-MD11... 2024-04-28 00:00:00
FX 734 KJFK FEDEX-MD11... 2024-04-27 00:00:00
FX 183 EGSS FEDEX-B77F 2024-04-27 00:00:00
FX 749 KAFW IF-LIVERY-... 2024-04-27 00:00:00
FXCTR WSSS FEDEX-B77F 2024-04-25 00:00:00
FX 142 KSFO FEDEX-B77F 2024-04-25 00:00:00
FX 173 KMIA IF-LIVERY-... 2024-04-21 00:00:00
FX 360 KIND FEDEX-B77F 2024-04-20 00:00:00
FX 098 KMKE FEDEX-DC10... 2024-04-20 00:00:00
FX 062 KFLL FEDEX-B77F 2024-04-20 00:00:00
FXCTR NZAA FEDEX-B77F 2024-04-19 00:00:00
FX057 KELP FEDEX-B77F 2024-04-19 00:00:00
FX 165 RJAA FEDEX-B77F 2024-04-19 00:00:00
FX 025 KBDL FEDEX-MD11... 2024-04-19 00:00:00
FX 112 KORF FEDEX-MD11... 2024-04-18 00:00:00
FX 140 KSEA FEDEX-DC10... 2024-04-17 00:00:00
FX 169 SBKP GENERIC-B7... 2024-04-16 00:00:00
FX 1288 VOBL FEDEX-B77F 2024-04-15 00:00:00
FX 719 KSHV IF-LIVERY-... 2024-04-14 00:00:00
FX 005 KDFW FEDEX-B77F 2024-04-16 00:00:00
FX 587 YSSY FEDEX-B77F 2024-04-14 00:00:00
FX165 RJAA FEDEX-B77F 2024-04-12 00:00:00
FX 015 KRDU FEDEX-B77F 2024-04-11 00:00:00
FX055 KDTW FEDEX-MD11... 2024-04-10 00:00:00
FX173 KMIA FEDEX-B77F 2024-04-09 00:00:00
FXCTR WSSS FEDEX-B77F 2024-04-09 00:00:00
FX041 KCLT FEDEX-MD11... 2024-04-08 00:00:00
FX057 KELP FEDEX-B77F 2024-04-07 00:00:00
FX 076 KIAH FEDEX-B77F 2024-04-07 00:00:00
FX EVENT KSTL FEDEX-DC10... 2024-04-06 00:00:00
FX EVENT KSTL FEDEX-DC10... 2024-04-06 00:00:00
FX EVENT KSTL FEDEX-DC10... 2024-04-06 00:00:00
FX EVENT KSTL FEDEX-DC10... 2024-04-06 00:00:00
FX EVENT KSTL FEDEX-DC10... 2024-04-06 00:00:00
FX EVENT KSTL FEDEX-DC10... 2024-04-06 00:00:00
FX EVENT KSTL FEDEX-DC10... 2024-04-06 00:00:00
FX EVENT KSTL FEDEX-DC10... 2024-04-06 00:00:00
FX CTR UHPP FEDEX-B77F 2024-04-06 00:00:00
FX 723 KSTL FEDEX-MD11... 2024-04-06 00:00:00
FX092 KMCO FEDEX-B77F 2024-04-06 00:00:00
FX 134 KSAT FEDEX-MD11... 2024-04-05 00:00:00
FX 074 KHRL FEDEX-B77F 2024-04-04 00:00:00
FX025 KBDL FEDEX-DC10... 2024-04-03 00:00:00
CONNECT 63 CYWG FEDEX-B77F 2024-04-03 00:00:00
CONNECT 102 MMGL FEDEX-MD11... 2024-04-03 00:00:00
CONNECT 102 MMGL FEDEX-MD11... 2024-04-03 00:00:00
FXCTR PANC FEDEX-B77F 2024-04-03 00:00:00
FX 498 KEWR FEDEX-MD11... 2024-04-03 00:00:00
FX 158 LFPG FEDEX-B77F 2024-04-02 00:00:00
FX 017 KLAX FEDEX-B77F 2024-04-02 00:00:00
CONNECT 63 CYWG FEDEX-B77F 2024-04-02 00:00:00
CONNECT 102 MMGL FEDEX-MD11... 2024-04-02 00:00:00
CONNECT 63 CYWG FEDEX-B77F 2024-04-01 00:00:00
FXCTR PHNL FEDEX-B77F 2024-03-31 00:00:00
FX360 KIND FEDEX-B77F 2024-03-31 00:00:00
FX 118 KPHL FEDEX-MD11... 2024-03-31 00:00:00
CONNECT92 EDDK FEDEX-B77F 2024-03-31 00:00:00
CONNECT63 CYWG FEDEX-B77F 2024-03-31 00:00:00
FX EVENT KMCI FEDEX-MD11... 2024-03-30 00:00:00
FX EVENT KMCI FEDEX-MD11... 2024-03-30 00:00:00
FX EVENT KMCI FEDEX-MD11... 2024-03-30 00:00:00
FX EVENT KMCI FEDEX-MD11... 2024-03-30 00:00:00
CONNECT 924 EDDK FEDEX-B77F 2024-03-30 00:00:00
FX 992 MROC IF-LIVERY-... 2024-03-29 00:00:00
FX 748 KIAD FEDEX-MD11... 2024-03-29 00:00:00
FX 723 KSTL FEDEX-MD11... 2024-03-29 00:00:00
FX 134 KSAT FEDEX-MD11... 2024-03-29 00:00:00
FX 120 KPHX FEDEX-B77F 2024-03-29 00:00:00
CONNECT 924 EDDK FEDEX-B77F 2024-03-29 00:00:00
CONNECT 462 ZSPD FEDEX-B77F 2024-03-29 00:00:00
CONNECT 462 ZSPD FEDEX-B77F 2024-03-29 00:00:00
FX 202 PHNL FEDEX-MD11... 2024-03-28 00:00:00
CONNECT 462 ZSPD FEDEX-B77F 2024-03-28 00:00:00
FX 202 PHNL FEDEX-B77F 2024-03-27 00:00:00
FX 173 KMIA FEDEX-MD11... 2024-03-27 00:00:00
CONNECT 924 EDDK FEDEX-B77F 2024-03-28 00:00:00
CONNECT 462 ZSPD FEDEX-B77F 2024-03-27 00:00:00
CONNECT 462 ZSPD FEDEX-B77F 2024-03-27 00:00:00
CONNECT 462 ZSPD FEDEX-B77F 2024-03-27 00:00:00
FX 173 KMIA FEDEX-MD11... 2024-03-26 00:00:00
CONNECT 19 SBKP FEDEX-MD11... 2024-03-26 00:00:00
FX047 KCVG FEDEX-B77F 2024-03-25 00:00:00
FX 251 CYYZ FEDEX-MD11... 2024-03-26 00:00:00
FX 169 SBKP FEDEX-B77F 2024-03-25 00:00:00
FX 120 KPHX FEDEX-MD11... 2024-03-24 00:00:00
FX213 EDDK FEDEX-B77F 2024-03-23 00:00:00
FX210 EDDF FEDEX-B77F 2024-03-21 00:00:00
FX 017 KLAX FEDEX-B77F 2024-03-21 00:00:00
FXCTR PHNL FEDEX-MD11... 2024-03-19 00:00:00
FX 202 PHNL FEDEX-B77F 2024-03-19 00:00:00
FX1091 KBTV IF-LIVERY-... 2024-03-19 00:00:00
FX 587 YSSY FEDEX-B77F 2024-03-18 00:00:00
CONNECT 19 SBKP FEDEX-MD11... 2024-03-19 00:00:00
CONNECT 2 LFPG FEDEX-B77F 2024-03-17 00:00:00
FX713 KRNO IF-LIVERY-... 2024-03-17 00:00:00
CONNECT 2 LFPG FEDEX-B77F 2024-03-16 00:00:00
FX 017 KLAX FEDEX-B77F 2024-03-15 00:00:00
FX 562 PANC FEDEX-B77F 2024-03-13 00:00:00
FX064 KFSD IF-LIVERY-... 2024-03-11 00:00:00
CONNECT2 LFPG FEDEX-B77F 2024-03-11 00:00:00
FX 642 ZSPD FEDEX-B77F 2024-03-10 00:00:00
FX 319 RJBB FEDEX-B77F 2024-03-11 00:00:00
FX 642 ZSPD FEDEX-B77F 2024-03-09 00:00:00
FX 193 KGSP FEDEX-DC10... 2024-03-09 00:00:00
FX 642 ZSPD FEDEX-B77F 2024-03-08 00:00:00
FX 642 ZSPD FEDEX-B77F 2024-03-08 00:00:00
FX 587 YSSY FEDEX-B77F 2024-03-08 00:00:00
FX 173 KMIA FEDEX-MD11... 2024-03-05 00:00:00
FX 1274 LIMC FEDEX-B77F 2024-03-04 00:00:00
FX 360 KIND FEDEX-MD11... 2024-03-04 00:00:00
FX 106 KOKC FEDEX-B77F 2024-03-04 00:00:00
FX 725 TJBQ FEDEX-MD11... 2024-03-02 00:00:00
FX 152 KTPA FEDEX-B77F 2024-03-03 00:00:00
FX 120 KPHX FEDEX-B77F 2024-03-02 00:00:00
FX204 SKBO FEDEX-B77F 2024-02-29 00:00:00
FX 562 PANC GENERIC-B7... 2024-02-29 00:00:00
FX 562 PANC FEDEX-B77F 2024-02-29 00:00:00
CONNECT 909 PHNL FEDEX-B77F 2024-02-29 00:00:00
FX 319 RJBB FEDEX-B77F 2024-02-28 00:00:00
CONNECT 909 PHNL FEDEX-B77F 2024-02-26 00:00:00
CONNECT 909 PHNL FEDEX-B77F 2024-02-26 00:00:00
FX 021 KATL FEDEX-B77F 2024-02-25 00:00:00
CONNECT 1487 MPTO FEDEX-DC10... 2024-02-24 00:00:00
FX 174 KMIA FEDEX-MD11... 2024-02-23 00:00:00
FX 164 OMDB FEDEX-B77F 2024-02-22 00:00:00
CONNECT 1600 SKBO FEDEX-DC10... 2024-02-23 00:00:00
FX 017 KLAX FEDEX-MD11... 2024-02-21 00:00:00
FX057 KELP FEDEX-B77F 2024-02-21 00:00:00
CONNECT 1487 MPTO FEDEX-DC10... 2024-02-19 00:00:00
FX 164 OMDB FEDEX-B77F 2024-02-18 00:00:00
FX 005 KDFW FEDEX-MD11... 2024-02-17 00:00:00
CONNECT 6002 CYYC FEDEX-DC10... 2024-02-15 00:00:00
FX 1132 KSBN IF-LIVERY-... 2024-02-13 00:00:00
CONNECT 6002 CYYC FEDEX-DC10... 2024-02-14 00:00:00
FX 158 LFPG FEDEX-B77F 2024-02-12 00:00:00
FX 007 KBOS FEDEX-B77F 2024-02-11 00:00:00
FX 757 KSLC FEDEX-MD11... 2024-02-10 00:00:00
FX 565 PANC FEDEX-B77F 2024-02-10 00:00:00
FX565 PANC FEDEX-B77F 2024-02-09 00:00:00
FX 205 SKBO FEDEX-DC10... 2024-02-03 00:00:00
FX 158 LFPG FEDEX-MD11... 2024-02-08 00:00:00
FX 092 KMCO FEDEX-B77F 2024-02-09 00:00:00
FX 005 KDFW FEDEX-B77F 2024-02-17 00:00:00
FX 565 PANC FEDEX-B77F 2024-02-07 00:00:00
FX 158 LFPG FEDEX-B77F 2024-02-06 00:00:00
FX 055 KDTW FEDEX-B77F 2024-02-05 00:00:00
FX 361 KIND FEDEX-B77F 2024-02-05 00:00:00
FX 158 LFPG FEDEX-B77F 2024-02-06 00:00:00
FX 211 EDDF FEDEX-B77F 2024-02-03 00:00:00
FX CTR RPLL FEDEX-B77F 2024-02-03 00:00:00
FX 672 ZSPD FEDEX-B77F 2024-02-03 00:00:00
FX 1033 KORD GENERIC-B7... 2024-02-03 00:00:00
FX 092 KMCO FEDEX-B77F 2024-02-02 00:00:00
FX953 VHHH FEDEX-B77F 2024-02-01 00:00:00
FX 211 EDDF FEDEX-B77F 2024-02-01 00:00:00
FX 565 PANC FEDEX-B77F 2024-02-01 00:00:00
FX 168 RKSI FEDEX-B77F 2024-02-01 00:00:00
FX 134 KSAT FEDEX-MD11... 2024-01-31 00:00:00
FX152 KTPA IF-LIVERY-... 2024-01-31 00:00:00
FX015 KRDU FEDEX-MD11... 2024-01-29 00:00:00
FX 763 TJSJ FEDEX-MD11... 2024-01-26 00:00:00
FX168 RKSI FEDEX-B77F 2024-01-25 00:00:00
FX 232 KOAK FEDEX-MD11... 2024-01-22 00:00:00
FX070 KGSO FEDEX-B77F 2024-01-21 00:00:00
FX 953 VHHH FEDEX-B77F 2024-01-20 00:00:00
FX 158 LFPG FEDEX-B77F 2024-01-20 00:00:00
FX953 VHHH FEDEX-B77F 2024-01-20 00:00:00
FX 565 PANC FEDEX-B77F 2024-01-19 00:00:00
FX 423 LIMC FEDEX-B77F 2024-01-18 00:00:00
FX 765 KBHM FEDEX-DC10... 2024-01-18 00:00:00
FX 232 KOAK IF-LIVERY-... 2024-01-18 00:00:00
FX 211 EDDF FEDEX-B77F 2024-01-18 00:00:00
FX 168 RKSI FEDEX-B77F 2024-01-17 00:00:00
MTN 8317 KSTL FEDEX-C208 2024-01-15 00:00:00
FX 232 KOAK FEDEX-MD11... 2024-01-15 00:00:00
FX 168 RKSI FEDEX-B77F 2024-01-15 00:00:00
FX 051 KDEN FEDEX-B77F 2024-01-15 00:00:00
FX 021 KATL FEDEX-B77F 2024-01-15 00:00:00
FX CTR LFPG FEDEX-MD11... 2024-01-14 00:00:00
FX 174 KMIA IF-LIVERY-... 2024-01-14 00:00:00
FX 164 OMDB FEDEX-B77F 2024-01-14 00:00:00
FX017 KLAX FEDEX-MD11... 2024-01-14 00:00:00
FX 591 YSSY FEDEX-B77F 2024-01-13 00:00:00
FX 501 KEWR FEDEX-B77F 2024-01-13 00:00:00
FX 232 KOAK FEDEX-MD11... 2024-01-14 00:00:00
FX 211 EDDF FEDEX-B77F 2024-01-13 00:00:00
FX 211 EDDF FEDEX-B77F 2024-01-13 00:00:00
FX 166 RJAA FEDEX-B77F 2024-01-13 00:00:00
FX 719 EBLG B77F 2024-01-12 00:00:00
FX203 PHNL B77F 2024-01-10 00:00:00
MTN8575 KLBB C208 2024-01-08 00:00:00
FX 082 KLAS B752 2024-01-09 00:00:00
FX 134 KSAT MD11F 2024-01-08 00:00:00
FX164 OMDB B77F 2024-01-07 00:00:00
FX 785 KAFW MD11F 2024-01-08 00:00:00
FX 158 LFPG B77F 2024-01-07 00:00:00
FX 140 KSEA B77F 2024-01-08 00:00:00
FX232 KOAK B77F 2024-01-06 00:00:00
FX1033 KORD B752 2024-01-06 00:00:00
FX 565 PANC B77F 2024-01-06 00:00:00
FX 120 KPHX B77F 2024-01-06 00:00:00
FX 013 CYWG MD11F 2024-01-06 00:00:00
FX WINTER 14 KORD MD11F 2024-01-05 00:00:00
FX WINTER 14 KORD MD11F 2024-01-05 00:00:00
FX134 KSAT MD11F 2024-01-04 00:00:00
FX WINTER 14 KORD MD11F 2024-01-04 00:00:00
FX 361 KIND MD11F 2024-01-04 00:00:00
FX 166 RJAA B77F 2024-01-04 00:00:00
FX 102 KMSP B77F 2024-01-05 00:00:00
FX 770 KJFK B77F 2024-01-03 00:00:00
FX WINTER 14 KORD MD11F 2024-01-02 00:00:00
FX 158 LFPG B77F 2024-01-03 00:00:00
FX 017 KLAX B77F 2024-01-02 00:00:00
FX361 KIND B77F 2024-01-01 00:00:00
FX 770 KJFK B77F 2024-01-01 00:00:00
FX 211 EDDF B77F 2024-01-01 00:00:00
FX 021 KATL MD11F 2024-01-01 00:00:00
FX166 RJAA B77F 2023-12-30 00:00:00
FX 772 KBNA MD11F 2023-12-31 00:00:00
FX 166 RJAA B77F 2023-12-31 00:00:00
FX 166 RJAA B77F 2023-12-31 00:00:00
FX164 OMDB B77F 2023-12-30 00:00:00
FX WINTER 14 KORD MD11F 2023-12-30 00:00:00
FX 154 KTUS B77F 2023-12-30 00:00:00
FX 565 PANC B77F 2023-12-29 00:00:00
FX 203 PHNL B77F 2023-12-29 00:00:00
FX 232 KOAK